Time;durP1;ratioP1;P1;durP2;ratioP2;P2;SDS_P1;SDS_P2;PMS_P1;PMS_P2;Temp;Humidity;BMP_temperature;BMP_pressure;BME280_temperature;BME280_humidity;BME280_pressure;Samples;Min_cycle;Max_cycle;Signal;HPM_P1;HPM_P2
2022/02/06 00:00:50;;;;;;;10.23;4.57;;;3.00;99.90;;;;;;2586601;54;20053;31
2022/02/06 00:03:22;;;;;;;8.93;4.27;;;3.00;99.90;;;;;;2586408;54;20030;31
2022/02/06 00:05:56;;;;;;;9.30;3.67;;;3.10;99.90;;;;;;2585999;54;20887;31
2022/02/06 00:11:03;;;;;;;10.57;4.07;;;3.10;99.90;;;;;;2586263;54;20838;31
2022/02/06 00:13:37;;;;;;;8.63;3.75;;;3.00;99.90;;;;;;2684171;39;21389;31
2022/02/06 00:16:11;;;;;;;13.65;4.20;;;3.00;99.90;;;;;;2586429;54;20881;31
2022/02/06 00:18:44;;;;;;;7.55;3.90;;;3.00;99.90;;;;;;2585730;54;20016;31
2022/02/06 00:21:18;;;;;;;7.40;3.80;;;3.00;99.90;;;;;;2586105;54;20879;31
2022/02/06 00:23:54;;;;;;;8.15;3.70;;;3.00;99.90;;;;;;2586177;54;20057;31
2022/02/06 00:26:35;;;;;;;12.07;3.80;;;3.10;99.90;;;;;;2586412;54;20930;31
2022/02/06 00:29:20;;;;;;;11.13;4.43;;;3.10;99.90;;;;;;2604448;46;20944;31
2022/02/06 00:31:58;;;;;;;10.05;2.90;;;3.00;99.90;;;;;;2604871;46;20046;31
2022/02/06 00:40:05;;;;;;;6.90;3.00;;;3.20;99.90;;;;;;2586315;54;20883;31
2022/02/06 00:42:40;;;;;;;10.52;3.33;;;3.20;99.90;;;;;;2586108;54;20054;31
2022/02/06 00:45:12;;;;;;;7.15;2.95;;;3.20;99.90;;;;;;2586157;54;20032;31
2022/02/06 00:47:44;;;;;;;8.43;3.40;;;3.20;99.90;;;;;;2604603;46;20836;31
2022/02/06 00:50:17;;;;;;;9.13;3.17;;;3.20;99.90;;;;;;2585995;54;20495;31
2022/02/06 00:53:00;;;;;;;5.90;2.83;;;3.30;99.90;;;;;;2586343;54;20037;31
2022/02/06 00:55:32;;;;;;;7.93;3.38;;;3.30;99.90;;;;;;2586086;54;20027;31
2022/02/06 00:58:09;;;;;;;5.13;2.50;;;3.30;99.90;;;;;;2604621;47;20034;31
2022/02/06 01:00:41;;;;;;;10.23;2.67;;;3.30;99.90;;;;;;2604781;47;20072;31
2022/02/06 01:03:15;;;;;;;7.80;3.20;;;3.30;99.90;;;;;;2586108;54;20023;31
2022/02/06 01:05:59;;;;;;;7.68;2.80;;;3.30;99.90;;;;;;2586053;54;20049;31
2022/02/06 01:08:31;;;;;;;5.03;2.80;;;3.30;99.90;;;;;;2585765;54;20921;31
2022/02/06 01:11:09;;;;;;;6.40;3.00;;;3.30;99.90;;;;;;2586105;54;20904;31
2022/02/06 01:14:06;;;;;;;5.13;2.90;;;3.30;99.90;;;;;;2592161;47;20023;31
2022/02/06 01:16:41;;;;;;;9.68;3.78;;;3.30;99.90;;;;;;2585618;54;20038;31
2022/02/06 01:19:20;;;;;;;8.37;3.80;;;3.30;99.90;;;;;;2585965;54;20037;31
2022/02/06 01:21:57;;;;;;;9.77;3.45;;;3.30;99.90;;;;;;2604526;47;20033;31
2022/02/06 01:24:39;;;;;;;6.40;2.83;;;3.30;99.90;;;;;;2586262;54;20933;31
2022/02/06 01:27:16;;;;;;;6.55;3.05;;;3.30;99.90;;;;;;2585795;54;20053;31
2022/02/06 01:29:58;;;;;;;8.85;3.35;;;3.30;99.90;;;;;;2585814;54;20855;31
2022/02/06 01:32:39;;;;;;;8.20;2.93;;;3.30;99.90;;;;;;2586879;54;20022;31
2022/02/06 01:35:17;;;;;;;6.45;3.00;;;3.30;99.90;;;;;;2587053;54;20901;31
2022/02/06 01:37:55;;;;;;;6.00;3.28;;;3.30;99.90;;;;;;2586702;54;20054;31
2022/02/06 01:40:37;;;;;;;8.13;3.53;;;3.30;99.90;;;;;;2586647;54;20913;31
2022/02/06 01:43:14;;;;;;;8.15;3.30;;;3.30;99.90;;;;;;2586858;54;20822;31
2022/02/06 01:46:14;;;;;;;8.50;3.30;;;3.40;99.90;;;;;;2586920;54;20872;31
2022/02/06 02:08:45;;;;;;;7.85;3.10;;;3.30;99.90;;;;;;2586624;54;20891;31
2022/02/06 02:14:30;;;;;;;5.85;3.03;;;3.30;99.90;;;;;;2604754;46;20485;31
2022/02/06 02:17:24;;;;;;;8.50;3.10;;;3.30;99.90;;;;;;2605342;46;20057;31
2022/02/06 02:23:09;;;;;;;7.68;2.65;;;3.40;99.90;;;;;;2586303;54;20030;31
2022/02/06 02:31:44;;;;;;;12.38;3.45;;;3.30;99.90;;;;;;2596226;46;20133;31
2022/02/06 02:45:19;;;;;;;6.88;2.75;;;3.20;99.90;;;;;;2586589;54;20045;31
2022/02/06 02:48:00;;;;;;;7.30;2.70;;;3.20;99.90;;;;;;2605119;46;20754;31
2022/02/06 02:50:35;;;;;;;7.00;2.63;;;3.20;99.90;;;;;;2586506;54;20023;31
2022/02/06 02:53:15;;;;;;;9.23;2.97;;;3.30;99.90;;;;;;2586641;54;20027;31
2022/02/06 02:56:01;;;;;;;5.65;2.85;;;3.30;99.90;;;;;;2586448;54;20474;31
2022/02/06 03:01:08;;;;;;;8.40;3.00;;;3.30;99.90;;;;;;2586419;54;20058;31
2022/02/06 03:03:42;;;;;;;5.55;2.50;;;3.30;99.90;;;;;;2585635;54;20156;31
2022/02/06 03:06:16;;;;;;;8.07;2.50;;;3.30;99.90;;;;;;2586607;54;20674;31
2022/02/06 03:08:49;;;;;;;5.68;2.78;;;3.30;99.90;;;;;;2605283;46;20900;31
2022/02/06 03:11:23;;;;;;;5.88;2.40;;;3.30;99.90;;;;;;2586626;54;20090;31
2022/02/06 03:14:03;;;;;;;9.00;2.70;;;3.30;99.90;;;;;;2586120;54;20026;31
2022/02/06 03:16:37;;;;;;;5.07;2.72;;;3.30;99.90;;;;;;2586181;54;20050;31
2022/02/06 03:19:15;;;;;;;6.30;2.60;;;3.30;99.90;;;;;;2586497;54;20821;31
2022/02/06 03:21:47;;;;;;;5.38;2.58;;;3.40;99.90;;;;;;2586176;54;20760;31
2022/02/06 03:26:50;;;;;;;7.75;3.10;;;3.40;99.90;;;;;;2586322;54;20784;31
2022/02/06 03:29:26;;;;;;;6.05;2.45;;;3.40;99.90;;;;;;2604999;46;19969;31
2022/02/06 03:31:57;;;;;;;7.10;2.80;;;3.40;99.90;;;;;;2586373;54;20838;31
2022/02/06 03:34:29;;;;;;;5.77;2.73;;;3.40;99.90;;;;;;2686283;39;21250;31
2022/02/06 03:37:03;;;;;;;5.60;2.90;;;3.40;99.90;;;;;;2586525;54;20884;31
2022/02/06 03:39:38;;;;;;;6.00;2.40;;;3.50;99.90;;;;;;2586454;54;20054;31
2022/02/06 03:42:16;;;;;;;8.70;5.20;;;3.50;99.90;;;;;;2586415;54;20859;31
2022/02/06 03:44:52;;;;;;;8.53;2.73;;;3.50;99.90;;;;;;2702346;39;20611;31
2022/02/06 03:47:32;;;;;;;8.00;2.65;;;3.50;99.90;;;;;;2586588;54;20899;31
2022/02/06 03:50:05;;;;;;;5.10;2.72;;;3.50;99.90;;;;;;2586274;54;20030;31
2022/02/06 03:52:44;;;;;;;5.20;2.50;;;3.60;99.90;;;;;;2604689;46;20843;31
2022/02/06 03:57:49;;;;;;;6.15;3.00;;;3.60;99.90;;;;;;2586245;54;20926;31
2022/02/06 04:00:20;;;;;;;4.70;2.13;;;3.60;99.90;;;;;;2586079;54;20026;31
2022/02/06 04:02:52;;;;;;;5.40;2.35;;;3.60;99.90;;;;;;2586587;54;20100;31
2022/02/06 04:05:23;;;;;;;6.70;2.05;;;3.70;99.90;;;;;;2586067;54;20026;31
2022/02/06 04:07:57;;;;;;;5.40;2.20;;;3.60;99.90;;;;;;2586459;54;20022;31
2022/02/06 04:10:35;;;;;;;4.72;2.08;;;3.60;99.90;;;;;;2586195;54;20888;31
2022/02/06 04:13:16;;;;;;;5.85;2.22;;;3.70;99.90;;;;;;2586191;54;20030;31
2022/02/06 04:15:50;;;;;;;5.32;2.25;;;3.70;99.90;;;;;;2586270;54;20754;31
2022/02/06 04:18:28;;;;;;;5.00;2.45;;;3.70;99.90;;;;;;2586250;54;20842;31
2022/02/06 04:21:02;;;;;;;6.55;2.20;;;3.70;99.90;;;;;;2604665;46;20061;31
2022/02/06 04:23:36;;;;;;;3.00;2.00;;;3.70;99.90;;;;;;2604729;46;20835;31
2022/02/06 04:26:08;;;;;;;3.72;1.80;;;3.70;99.90;;;;;;2604779;46;20054;31
2022/02/06 04:28:45;;;;;;;4.25;2.45;;;3.70;99.90;;;;;;2586194;54;20023;31
2022/02/06 04:33:50;;;;;;;3.90;1.60;;;3.80;99.90;;;;;;2586192;54;20085;31
2022/02/06 04:36:26;;;;;;;;;;;3.80;99.90;;;;;;2586612;54;20790;31
2022/02/06 04:39:09;;;;;;;5.55;1.95;;;3.80;99.90;;;;;;2586358;54;20738;31
2022/02/06 04:41:59;;;;;;;5.68;1.80;;;3.90;99.90;;;;;;2586337;54;20060;31
2022/02/06 04:45:00;;;;;;;4.28;1.77;;;3.80;99.90;;;;;;2586469;54;20826;31
2022/02/06 05:15:44;;;;;;;3.38;1.13;;;3.90;99.90;;;;;;2587226;54;20031;31
2022/02/06 05:26:56;;;;;;;2.60;1.00;;;3.90;99.90;;;;;;2586788;54;20027;31
2022/02/06 05:29:37;;;;;;;3.40;1.20;;;4.00;99.90;;;;;;2587101;54;20046;31
2022/02/06 05:32:20;;;;;;;3.22;1.10;;;4.00;99.90;;;;;;2605719;46;20744;31
2022/02/06 05:34:55;;;;;;;2.25;1.38;;;4.00;99.90;;;;;;2605616;46;20834;31
2022/02/06 05:37:27;;;;;;;1.73;0.70;;;4.00;99.90;;;;;;2586942;54;20846;31
2022/02/06 05:40:00;;;;;;;4.10;1.45;;;4.00;99.90;;;;;;2587181;54;20893;31
2022/02/06 05:42:35;;;;;;;2.05;1.00;;;4.00;99.90;;;;;;2605856;46;20022;31
2022/02/06 05:45:09;;;;;;;2.78;1.27;;;4.00;99.90;;;;;;2586757;54;20082;31
2022/02/06 05:47:41;;;;;;;4.57;1.23;;;4.10;99.90;;;;;;2587078;54;20086;31
2022/02/06 05:50:16;;;;;;;1.57;0.80;;;4.00;99.90;;;;;;2586917;54;20089;31
2022/02/06 05:52:48;;;;;;;1.70;0.80;;;4.10;99.90;;;;;;2587037;54;21140;31
2022/02/06 05:55:21;;;;;;;2.72;1.00;;;4.10;99.90;;;;;;2605231;46;20449;31
2022/02/06 06:00:25;;;;;;;2.40;0.80;;;4.10;99.90;;;;;;2605080;46;20504;31
2022/02/06 06:03:00;;;;;;;2.10;0.90;;;4.10;99.90;;;;;;2755498;31;20533;31
2022/02/06 06:05:37;;;;;;;2.50;0.95;;;4.10;99.90;;;;;;2586639;54;20026;31
2022/02/06 06:08:11;;;;;;;4.05;1.20;;;4.10;99.90;;;;;;2586693;54;20936;31
2022/02/06 06:10:45;;;;;;;2.70;0.90;;;4.10;99.90;;;;;;2586766;54;20766;31
2022/02/06 06:13:19;;;;;;;2.05;0.95;;;4.10;99.90;;;;;;2586844;54;20741;31
2022/02/06 06:15:55;;;;;;;2.43;1.10;;;4.10;99.90;;;;;;2586355;54;20915;31
2022/02/06 06:18:27;;;;;;;3.70;1.50;;;4.10;99.90;;;;;;2586853;54;20766;31
2022/02/06 06:20:59;;;;;;;3.45;1.00;;;4.10;99.90;;;;;;2702910;39;20407;31
2022/02/06 06:23:33;;;;;;;2.00;0.90;;;4.10;99.90;;;;;;2586794;54;20649;31
2022/02/06 06:26:03;;;;;;;2.40;0.70;;;4.10;99.90;;;;;;2586598;54;20933;31
2022/02/06 06:28:37;;;;;;;2.95;0.85;;;4.10;99.90;;;;;;2586217;54;20029;31
2022/02/06 06:31:10;;;;;;;2.60;0.80;;;4.10;99.90;;;;;;2586761;54;20910;31
2022/02/06 06:33:43;;;;;;;2.27;0.60;;;4.10;99.90;;;;;;2604948;46;20438;31
2022/02/06 06:36:15;;;;;;;1.42;0.70;;;4.10;99.90;;;;;;2586630;54;21327;31
2022/02/06 06:38:52;;;;;;;1.42;0.65;;;4.10;99.90;;;;;;2586735;54;20739;31
2022/02/06 06:41:26;;;;;;;2.22;0.77;;;4.10;99.90;;;;;;2604892;46;20030;31
2022/02/06 06:43:58;;;;;;;2.55;0.50;;;4.10;99.90;;;;;;2586606;54;20820;31
2022/02/06 06:46:30;;;;;;;1.63;0.57;;;4.10;99.90;;;;;;2586528;54;20762;31
2022/02/06 06:49:04;;;;;;;1.27;0.60;;;4.10;99.90;;;;;;2586523;54;20921;31
2022/02/06 06:51:38;;;;;;;1.20;0.40;;;4.10;99.90;;;;;;2604971;46;20030;31
2022/02/06 06:54:19;;;;;;;2.00;0.50;;;4.00;99.90;;;;;;2586704;54;20806;31
2022/02/06 06:56:59;;;;;;;1.20;0.43;;;4.10;99.90;;;;;;2586514;54;20873;31
2022/02/06 06:59:47;;;;;;;1.15;0.40;;;4.10;99.90;;;;;;2586552;54;20061;31
2022/02/06 07:02:28;;;;;;;1.55;0.55;;;4.10;99.90;;;;;;2586374;54;20054;31
2022/02/06 07:07:31;;;;;;;1.75;0.50;;;4.00;99.90;;;;;;2586499;54;20871;31
2022/02/06 07:10:09;;;;;;;2.80;0.50;;;4.10;99.90;;;;;;2605279;46;20054;31
2022/02/06 07:12:41;;;;;;;1.10;0.50;;;4.10;99.90;;;;;;2586758;54;20917;31
2022/02/06 07:15:15;;;;;;;3.95;0.70;;;4.10;99.90;;;;;;2586515;54;20878;31
2022/02/06 07:17:47;;;;;;;1.85;0.55;;;4.00;99.90;;;;;;2586324;54;20760;31
2022/02/06 07:20:21;;;;;;;2.50;0.70;;;4.00;99.90;;;;;;2586499;54;20036;31
2022/02/06 07:22:55;;;;;;;2.40;0.77;;;4.00;99.90;;;;;;2586415;54;20969;31
2022/02/06 07:25:32;;;;;;;2.92;0.70;;;4.00;99.90;;;;;;2586470;54;21254;31
2022/02/06 07:28:14;;;;;;;1.08;0.45;;;4.10;99.90;;;;;;2586287;54;20064;31
2022/02/06 07:30:47;;;;;;;2.70;0.60;;;4.10;99.90;;;;;;2586431;54;20863;31
2022/02/06 07:33:21;;;;;;;0.70;0.45;;;4.10;99.90;;;;;;2586280;54;20057;31
2022/02/06 07:35:56;;;;;;;2.70;0.85;;;4.10;99.90;;;;;;2601747;46;20729;31
2022/02/06 07:38:30;;;;;;;1.90;0.95;;;4.10;99.90;;;;;;2586348;54;19935;31
2022/02/06 07:41:07;;;;;;;3.28;0.73;;;4.10;99.90;;;;;;2586397;54;20755;31
2022/02/06 07:43:39;;;;;;;3.47;0.60;;;4.20;99.90;;;;;;2586064;54;20875;31
2022/02/06 07:46:19;;;;;;;2.30;0.80;;;4.20;99.90;;;;;;2586558;54;20895;31
2022/02/06 07:48:54;;;;;;;1.00;0.70;;;4.20;99.90;;;;;;2586243;54;20061;31
2022/02/06 07:51:27;;;;;;;3.50;0.70;;;4.20;99.90;;;;;;2586570;54;20894;31
2022/02/06 07:53:58;;;;;;;4.25;0.80;;;4.30;99.90;;;;;;2585947;54;20819;31
2022/02/06 07:56:33;;;;;;;3.80;0.90;;;4.30;99.90;;;;;;2604870;46;20054;31
2022/02/06 07:59:06;;;;;;;2.40;0.80;;;4.30;99.90;;;;;;2586445;54;20857;31
2022/02/06 08:01:40;;;;;;;1.70;0.70;;;4.30;99.90;;;;;;2604675;46;20048;31
2022/02/06 08:04:14;;;;;;;1.60;0.80;;;4.40;99.90;;;;;;2604958;46;20866;31
2022/02/06 08:06:48;;;;;;;4.38;1.00;;;4.40;99.90;;;;;;2586085;54;20064;31
2022/02/06 08:09:32;;;;;;;1.77;0.85;;;4.40;99.90;;;;;;2586286;54;20029;31
2022/02/06 08:12:10;;;;;;;2.58;1.02;;;4.40;99.90;;;;;;2586430;54;20125;31
2022/02/06 08:17:13;;;;;;;2.13;0.80;;;4.50;99.90;;;;;;2586270;54;20057;31
2022/02/06 08:19:46;;;;;;;1.58;0.60;;;4.50;99.90;;;;;;2604639;46;20030;31
2022/02/06 08:22:19;;;;;;;1.80;0.70;;;4.60;99.90;;;;;;2586307;54;20779;31
2022/02/06 08:24:53;;;;;;;2.55;0.80;;;4.60;99.90;;;;;;2586265;54;19941;31
2022/02/06 08:27:32;;;;;;;1.80;0.57;;;4.60;99.90;;;;;;2586211;54;20869;31
2022/02/06 08:30:06;;;;;;;1.87;0.80;;;4.60;99.90;;;;;;2702456;39;20388;31
2022/02/06 08:32:38;;;;;;;1.77;0.65;;;4.70;99.90;;;;;;2702856;39;21032;31
2022/02/06 08:35:10;;;;;;;1.90;0.60;;;4.70;99.90;;;;;;2585956;54;20887;31
2022/02/06 08:37:42;;;;;;;1.02;0.47;;;4.70;99.90;;;;;;2586072;54;20195;31
2022/02/06 08:40:16;;;;;;;2.67;0.90;;;4.70;99.90;;;;;;2586047;54;20037;31
2022/02/06 08:42:56;;;;;;;1.80;0.77;;;4.80;99.90;;;;;;2586037;54;20830;31
2022/02/06 08:45:31;;;;;;;1.45;0.55;;;4.80;99.90;;;;;;2586007;54;20112;31
2022/02/06 08:48:03;;;;;;;2.85;0.88;;;4.80;99.90;;;;;;2586135;54;20124;31
2022/02/06 08:50:37;;;;;;;2.13;0.80;;;4.80;99.90;;;;;;2585956;54;21323;31
2022/02/06 08:53:09;;;;;;;1.90;0.60;;;4.90;99.90;;;;;;2586194;54;20948;31
2022/02/06 08:55:48;;;;;;;1.80;0.80;;;4.90;99.90;;;;;;2586093;54;20088;31
2022/02/06 08:58:23;;;;;;;2.50;0.93;;;4.90;99.90;;;;;;2586053;54;20030;31
2022/02/06 09:00:58;;;;;;;2.55;0.75;;;4.90;99.90;;;;;;2586066;54;20112;31
2022/02/06 09:03:30;;;;;;;1.65;0.70;;;4.90;99.90;;;;;;2585953;54;19977;31
2022/02/06 09:06:03;;;;;;;2.15;0.75;;;4.90;99.90;;;;;;2604299;47;20515;31
2022/02/06 09:08:38;;;;;;;4.38;1.35;;;5.00;99.90;;;;;;2585896;54;20900;31
2022/02/06 09:11:13;;;;;;;2.60;0.90;;;5.00;99.90;;;;;;2585974;54;20089;31
2022/02/06 09:13:47;;;;;;;2.30;1.03;;;5.10;99.90;;;;;;2585922;54;20907;31
2022/02/06 09:16:20;;;;;;;2.80;1.08;;;5.00;99.90;;;;;;2585590;54;20030;31
2022/02/06 09:18:54;;;;;;;2.15;0.80;;;5.00;99.90;;;;;;2604187;47;20952;31
2022/02/06 09:21:29;;;;;;;4.10;1.40;;;5.10;99.90;;;;;;2586185;54;20034;31
2022/02/06 09:24:03;;;;;;;2.63;0.90;;;5.10;99.90;;;;;;2585984;54;20057;31
2022/02/06 09:26:35;;;;;;;2.80;0.70;;;5.10;99.90;;;;;;2586183;54;20736;31
2022/02/06 09:29:10;;;;;;;1.40;0.60;;;5.10;99.90;;;;;;2586025;54;20265;31
2022/02/06 09:31:48;;;;;;;3.30;1.05;;;5.20;99.90;;;;;;2586094;54;20877;31
2022/02/06 09:36:53;;;;;;;1.57;0.80;;;5.20;99.90;;;;;;2585849;54;21212;31
2022/02/06 09:39:24;;;;;;;3.35;1.00;;;5.20;99.90;;;;;;2586037;54;20745;31
2022/02/06 09:41:56;;;;;;;2.00;0.75;;;5.10;99.90;;;;;;2585736;54;20891;31
2022/02/06 09:44:32;;;;;;;3.88;1.55;;;5.20;99.90;;;;;;2585793;54;20891;31
2022/02/06 09:47:05;;;;;;;2.25;0.95;;;5.20;99.90;;;;;;2586013;54;20943;31
2022/02/06 09:49:38;;;;;;;5.70;2.70;;;5.10;99.90;;;;;;2585905;54;20031;31
2022/02/06 09:52:11;;;;;;;2.70;0.95;;;5.20;99.90;;;;;;2586493;54;20073;31
2022/02/06 09:54:48;;;;;;;2.40;0.90;;;5.10;99.90;;;;;;2605315;46;20030;31
2022/02/06 09:57:26;;;;;;;2.67;0.80;;;5.10;99.90;;;;;;2586550;54;20257;31
2022/02/06 10:00:01;;;;;;;3.77;1.10;;;5.10;99.90;;;;;;2586537;54;21301;31
2022/02/06 10:02:39;;;;;;;3.13;0.98;;;5.20;99.90;;;;;;2586514;54;20810;31
2022/02/06 10:05:12;;;;;;;4.50;1.10;;;5.20;99.90;;;;;;2604858;46;20757;31
2022/02/06 10:07:46;;;;;;;3.40;1.15;;;5.20;99.90;;;;;;2586878;54;20068;31
2022/02/06 10:10:19;;;;;;;2.45;0.93;;;5.20;99.90;;;;;;2605168;46;20033;31
2022/02/06 10:12:51;;;;;;;2.65;1.20;;;5.20;99.90;;;;;;2586596;54;20031;31
2022/02/06 10:15:25;;;;;;;2.25;1.00;;;5.30;99.90;;;;;;2605114;46;20910;31
2022/02/06 10:18:00;;;;;;;5.97;1.92;;;5.40;99.90;;;;;;2605017;46;20033;31
2022/02/06 10:20:40;;;;;;;3.33;1.02;;;5.30;99.90;;;;;;2604853;46;20027;31
2022/02/06 10:23:22;;;;;;;2.70;1.20;;;5.30;99.90;;;;;;2586509;54;20065;31
2022/02/06 10:26:06;;;;;;;4.25;1.17;;;5.40;99.90;;;;;;2586456;54;20085;31
2022/02/06 10:28:43;;;;;;;3.22;1.15;;;5.40;99.90;;;;;;2586272;54;20046;31
2022/02/06 10:31:20;;;;;;;3.10;1.20;;;5.40;99.90;;;;;;2586444;54;20946;31
2022/02/06 10:33:53;;;;;;;2.67;1.20;;;5.50;99.90;;;;;;2586497;54;21108;31
2022/02/06 10:36:25;;;;;;;2.80;1.27;;;5.50;99.90;;;;;;2586498;54;20030;31
2022/02/06 10:39:03;;;;;;;5.00;1.10;;;5.50;99.90;;;;;;2604708;46;20156;31
2022/02/06 10:41:36;;;;;;;3.35;0.90;;;5.50;99.90;;;;;;2586716;54;20031;31
2022/02/06 10:44:09;;;;;;;4.45;1.40;;;5.60;99.90;;;;;;2586282;54;20057;31
2022/02/06 10:46:53;;;;;;;2.75;1.20;;;5.60;99.90;;;;;;2605178;46;20806;31
2022/02/06 10:49:28;;;;;;;2.97;1.42;;;5.70;99.90;;;;;;2604943;46;20069;31
2022/02/06 10:52:01;;;;;;;4.10;1.58;;;5.70;99.90;;;;;;2755035;31;20514;31
2022/02/06 10:54:35;;;;;;;3.40;1.40;;;5.70;99.90;;;;;;2586380;54;20097;31
2022/02/06 10:57:10;;;;;;;3.50;1.50;;;5.60;99.90;;;;;;2586372;54;20046;31
2022/02/06 10:59:49;;;;;;;2.67;1.10;;;5.70;99.90;;;;;;2586731;54;20037;31
2022/02/06 11:02:27;;;;;;;2.95;1.42;;;5.80;99.90;;;;;;2586287;54;20910;31
2022/02/06 11:05:03;;;;;;;3.53;1.65;;;5.80;99.90;;;;;;2586375;54;20861;31
2022/02/06 11:07:38;;;;;;;4.43;1.40;;;5.80;99.90;;;;;;2586551;54;20862;31
2022/02/06 11:10:13;;;;;;;7.95;1.70;;;5.90;99.90;;;;;;2586526;54;20890;31
2022/02/06 11:12:51;;;;;;;3.20;1.40;;;5.90;99.90;;;;;;2586321;54;20097;31
2022/02/06 11:15:26;;;;;;;3.78;1.20;;;6.00;99.90;;;;;;2586143;54;20727;31
2022/02/06 11:18:10;;;;;;;3.95;1.55;;;6.00;99.90;;;;;;2702376;39;20385;31
2022/02/06 11:20:55;;;;;;;2.40;1.23;;;6.10;99.90;;;;;;2586200;54;20816;31
2022/02/06 11:23:27;;;;;;;3.45;1.45;;;6.10;99.90;;;;;;2586322;54;20061;31
2022/02/06 11:26:00;;;;;;;3.08;1.27;;;6.20;99.90;;;;;;2586141;54;20050;31
2022/02/06 11:28:35;;;;;;;4.63;1.70;;;6.30;99.90;;;;;;2586422;54;20026;31
2022/02/06 11:31:12;;;;;;;3.55;1.65;;;6.40;99.90;;;;;;2586532;54;20844;31
2022/02/06 11:33:49;;;;;;;2.45;1.20;;;6.40;99.90;;;;;;2586282;54;20831;31
2022/02/06 11:43:42;;;;;;;5.35;1.80;;;6.50;99.90;;;;;;2586343;54;20109;31
2022/02/06 11:45:10;;;;;;;4.65;1.20;;;6.80;99.90;;;;;;2586191;54;20868;31
2022/02/06 11:47:49;;;;;;;3.05;1.55;;;6.90;99.90;;;;;;2604855;46;20827;31
2022/02/06 11:50:25;;;;;;;8.07;3.00;;;7.00;99.90;;;;;;2586456;54;20894;31
2022/02/06 11:53:01;;;;;;;4.60;1.60;;;7.00;99.90;;;;;;2586386;54;20733;31
2022/02/06 11:55:40;;;;;;;3.40;1.57;;;7.00;99.90;;;;;;2586403;54;19961;31
2022/02/06 11:58:13;;;;;;;3.00;1.35;;;7.10;99.90;;;;;;2586261;54;20718;31
2022/02/06 12:00:46;;;;;;;3.45;1.27;;;7.10;99.90;;;;;;2586343;54;20801;31
2022/02/06 12:03:18;;;;;;;3.75;1.20;;;7.10;99.90;;;;;;2604325;46;20128;31
2022/02/06 12:06:03;;;;;;;3.40;1.00;;;7.00;99.90;;;;;;2586094;54;20846;31
2022/02/06 12:08:33;;;;;;;1.88;0.80;;;7.10;99.90;;;;;;2586242;54;20995;31
2022/02/06 12:11:15;;;;;;;3.20;1.60;;;7.00;99.90;;;;;;2586195;54;20122;31
2022/02/06 12:13:49;;;;;;;1.77;1.20;;;7.00;99.90;;;;;;2604549;46;20230;31
2022/02/06 12:16:27;;;;;;;3.80;1.10;;;7.00;99.90;;;;;;2586260;54;20753;31
2022/02/06 12:21:31;;;;;;;2.83;1.45;;;7.10;99.90;;;;;;2585957;54;20053;31
2022/02/06 12:24:06;;;;;;;3.70;1.20;;;7.10;99.90;;;;;;2586404;54;20899;31
2022/02/06 12:26:46;;;;;;;3.83;1.40;;;7.10;99.90;;;;;;2586374;54;20052;31
2022/02/06 12:29:26;;;;;;;3.30;1.27;;;7.10;99.90;;;;;;2585911;54;20965;31
2022/02/06 12:32:03;;;;;;;3.10;1.40;;;7.10;99.90;;;;;;2586171;54;20845;31
2022/02/06 12:37:36;;;;;;;1.80;1.10;;;7.10;99.90;;;;;;2604777;46;20901;31
2022/02/06 12:40:16;;;;;;;4.07;1.52;;;7.10;99.90;;;;;;2586244;54;20033;31
2022/02/06 12:42:52;;;;;;;3.28;1.35;;;7.20;99.90;;;;;;2586116;54;20101;31
2022/02/06 12:45:25;;;;;;;4.25;1.67;;;7.20;99.90;;;;;;2604252;46;20081;31
2022/02/06 12:48:00;;;;;;;3.10;1.13;;;7.20;99.90;;;;;;2586134;54;20907;31
2022/02/06 12:50:34;;;;;;;3.83;1.30;;;7.30;99.90;;;;;;2586201;54;20030;31
2022/02/06 12:53:14;;;;;;;2.70;1.20;;;7.30;99.90;;;;;;2701973;39;20369;31
2022/02/06 12:55:48;;;;;;;3.97;1.38;;;7.40;99.90;;;;;;2585993;54;21006;31
2022/02/06 12:58:30;;;;;;;3.33;1.13;;;7.40;99.90;;;;;;2586311;54;20798;31
2022/02/06 13:01:04;;;;;;;3.10;1.13;;;7.40;99.90;;;;;;2586214;54;20389;31
2022/02/06 13:03:38;;;;;;;4.45;1.15;;;7.50;99.90;;;;;;2586079;54;21431;31
2022/02/06 13:06:14;;;;;;;3.60;1.30;;;7.50;99.90;;;;;;2701938;39;20506;31
2022/02/06 13:08:53;;;;;;;3.00;1.30;;;7.60;99.90;;;;;;2586228;54;19938;31
2022/02/06 13:11:35;;;;;;;2.80;1.20;;;7.70;99.90;;;;;;2586085;54;20030;31
2022/02/06 13:14:21;;;;;;;3.65;1.30;;;7.70;99.90;;;;;;2586122;54;20849;31
2022/02/06 13:17:05;;;;;;;2.92;1.27;;;7.70;99.90;;;;;;2585961;54;21121;31
2022/02/06 13:19:48;;;;;;;5.47;1.38;;;7.70;99.90;;;;;;2586004;54;20056;31
2022/02/06 13:22:33;;;;;;;3.58;1.50;;;7.70;99.90;;;;;;2604197;47;20093;31
2022/02/06 13:25:32;;;;;;;2.47;1.00;;;7.60;99.90;;;;;;2586090;54;20027;31
2022/02/06 13:28:17;;;;;;;2.83;1.20;;;7.60;99.90;;;;;;2600082;46;20855;31
2022/02/06 13:33:50;;;;;;;4.20;1.50;;;7.50;99.90;;;;;;2586444;54;20030;31
2022/02/06 13:36:31;;;;;;;3.60;1.40;;;7.60;99.90;;;;;;2586786;54;20061;31
2022/02/06 13:39:08;;;;;;;3.70;1.55;;;7.50;99.90;;;;;;2585996;54;20115;31
2022/02/06 13:41:44;;;;;;;4.22;1.52;;;7.50;99.90;;;;;;2586730;54;20026;31
2022/02/06 13:44:24;;;;;;;2.35;1.05;;;7.60;99.90;;;;;;2586858;54;20891;31
2022/02/06 13:46:59;;;;;;;3.27;1.53;;;7.50;99.90;;;;;;2605117;46;20130;31
2022/02/06 13:49:38;;;;;;;3.65;1.80;;;7.50;99.90;;;;;;2586690;54;20053;31
2022/02/06 13:52:12;;;;;;;3.72;1.23;;;7.50;99.90;;;;;;2586826;54;21251;31
2022/02/06 13:54:49;;;;;;;3.40;1.20;;;7.50;99.90;;;;;;2586832;54;20852;31
2022/02/06 13:57:28;;;;;;;3.20;1.40;;;7.50;99.90;;;;;;2605331;46;20030;31
2022/02/06 14:00:01;;;;;;;3.80;1.30;;;7.50;99.90;;;;;;2586778;54;20023;31
2022/02/06 14:02:34;;;;;;;3.45;1.50;;;7.50;99.90;;;;;;2586471;54;20037;31
2022/02/06 14:05:10;;;;;;;3.00;1.25;;;7.40;99.90;;;;;;2586495;54;20924;31
2022/02/06 14:07:43;;;;;;;3.30;1.67;;;7.40;99.90;;;;;;2586521;54;20567;31
2022/02/06 14:10:21;;;;;;;5.10;1.85;;;7.40;99.90;;;;;;2605487;46;20050;31
2022/02/06 14:12:57;;;;;;;3.50;1.25;;;7.40;99.90;;;;;;2586601;54;20550;31
2022/02/06 14:15:30;;;;;;;5.70;1.60;;;7.40;99.90;;;;;;2586749;54;20031;31
2022/02/06 14:18:10;;;;;;;3.50;1.50;;;7.30;99.90;;;;;;2586647;54;20046;31
2022/02/06 14:20:44;;;;;;;3.55;1.30;;;7.30;99.90;;;;;;2586690;54;20075;31
2022/02/06 14:23:18;;;;;;;2.60;1.40;;;7.30;99.90;;;;;;2586571;54;20770;31
2022/02/06 14:25:51;;;;;;;4.60;1.80;;;7.30;99.90;;;;;;2586464;54;20254;31
2022/02/06 14:28:28;;;;;;;3.77;1.67;;;7.30;99.90;;;;;;2586714;54;20749;31
2022/02/06 14:31:04;;;;;;;3.95;1.40;;;7.20;99.90;;;;;;2586495;54;20877;31
2022/02/06 14:33:35;;;;;;;4.80;1.60;;;7.20;99.90;;;;;;2586474;54;20085;31
2022/02/06 14:36:17;;;;;;;3.47;1.30;;;7.20;99.90;;;;;;2586496;54;20903;31
2022/02/06 14:38:54;;;;;;;2.58;1.10;;;7.10;99.90;;;;;;2605183;47;20030;31
2022/02/06 14:41:36;;;;;;;3.60;1.40;;;7.10;99.90;;;;;;2586752;54;20030;31
2022/02/06 14:44:15;;;;;;;8.73;1.55;;;7.10;99.90;;;;;;2586698;54;20922;31
2022/02/06 14:46:58;;;;;;;3.60;1.20;;;7.10;99.90;;;;;;2586397;54;20878;31
2022/02/06 14:49:32;;;;;;;3.65;1.30;;;7.10;99.90;;;;;;2586475;54;20089;31
2022/02/06 14:52:07;;;;;;;3.85;1.17;;;7.10;99.90;;;;;;2586614;54;20945;31
2022/02/06 14:54:45;;;;;;;5.70;1.70;;;7.00;99.90;;;;;;2605247;46;20875;31
2022/02/06 14:57:20;;;;;;;3.97;1.70;;;7.10;99.90;;;;;;2586598;54;20022;31
2022/02/06 14:59:54;;;;;;;5.40;1.42;;;7.10;99.90;;;;;;2604699;46;21131;31
2022/02/06 15:02:32;;;;;;;5.65;1.77;;;7.10;99.90;;;;;;2586640;54;19946;31
2022/02/06 15:05:05;;;;;;;4.18;1.80;;;7.00;99.90;;;;;;2586587;54;20953;31
2022/02/06 15:07:38;;;;;;;4.53;1.70;;;7.00;99.90;;;;;;2586280;54;20909;31
2022/02/06 15:10:12;;;;;;;5.40;1.70;;;7.00;99.90;;;;;;2601406;46;20104;31
2022/02/06 15:12:47;;;;;;;4.80;1.65;;;7.00;99.90;;;;;;2586350;54;20894;31
2022/02/06 15:17:57;;;;;;;5.85;1.55;;;7.00;99.90;;;;;;2586230;54;20892;31
2022/02/06 15:20:33;;;;;;;3.20;1.87;;;7.00;99.90;;;;;;2605187;46;20057;31
2022/02/06 15:23:08;;;;;;;;;;;6.90;99.90;;;;;;2586912;54;20026;31
2022/02/06 15:25:41;;;;;;;4.97;1.63;;;6.90;99.90;;;;;;2605087;46;19977;31
2022/02/06 15:28:12;;;;;;;5.75;1.73;;;6.90;99.90;;;;;;2586157;54;20037;31
2022/02/06 15:30:47;;;;;;;4.35;1.75;;;6.90;99.90;;;;;;2586444;54;20859;31
2022/02/06 15:33:24;;;;;;;4.80;1.98;;;6.90;99.90;;;;;;2603632;46;20092;31
2022/02/06 15:35:57;;;;;;;5.65;1.90;;;6.80;99.90;;;;;;2604615;46;20655;31
2022/02/06 15:38:32;;;;;;;6.20;1.60;;;6.80;99.90;;;;;;2586317;54;20037;31
2022/02/06 15:41:06;;;;;;;3.55;1.38;;;6.80;99.90;;;;;;2585430;54;20053;31
2022/02/06 15:43:39;;;;;;;4.95;1.35;;;6.70;99.90;;;;;;2590490;46;20022;31
2022/02/06 15:46:11;;;;;;;3.85;1.45;;;6.70;99.90;;;;;;2586303;54;20755;31
2022/02/06 15:48:44;;;;;;;3.20;1.40;;;6.70;99.90;;;;;;2585251;54;19942;31
2022/02/06 15:51:15;;;;;;;2.85;1.50;;;6.70;99.90;;;;;;2586462;54;20757;31
2022/02/06 15:53:49;;;;;;;2.90;1.57;;;6.60;99.90;;;;;;2586440;54;20740;31
2022/02/06 15:56:23;;;;;;;3.20;1.50;;;6.60;99.90;;;;;;2605032;46;20285;31
2022/02/06 15:58:56;;;;;;;3.70;1.43;;;6.60;99.90;;;;;;2604888;46;20053;31